sensor_id;sensor_type;location;lat;lon;timestamp;pressure;altitude;pressure_sealevel;temperature;humidity
11830;BME280;5972;42.134;24.718;2023-11-19T00:01:03;99446.78;;;7.67;79.41
11830;BME280;5972;42.134;24.718;2023-11-19T00:03:31;99458.47;;;7.71;78.34
11830;BME280;5972;42.134;24.718;2023-11-19T00:05:58;99449.94;;;7.69;77.54
11830;BME280;5972;42.134;24.718;2023-11-19T00:08:25;99466.69;;;7.74;77.71
11830;BME280;5972;42.134;24.718;2023-11-19T00:10:54;99437.00;;;7.53;77.34
11830;BME280;5972;42.134;24.718;2023-11-19T00:13:21;99456.88;;;7.70;76.51
11830;BME280;5972;42.134;24.718;2023-11-19T00:15:48;99465.91;;;7.74;77.55
11830;BME280;5972;42.134;24.718;2023-11-19T00:18:16;99460.97;;;7.76;77.17
11830;BME280;5972;42.134;24.718;2023-11-19T00:20:43;99464.13;;;7.78;78.68
11830;BME280;5972;42.134;24.718;2023-11-19T00:23:10;99458.16;;;7.72;79.96
11830;BME280;5972;42.134;24.718;2023-11-19T00:25:37;99457.47;;;7.75;80.51
11830;BME280;5972;42.134;24.718;2023-11-19T00:28:05;99461.63;;;7.73;81.38
11830;BME280;5972;42.134;24.718;2023-11-19T00:30:32;99460.56;;;7.65;81.54
11830;BME280;5972;42.134;24.718;2023-11-19T00:32:59;99469.09;;;7.67;82.61
11830;BME280;5972;42.134;24.718;2023-11-19T00:35:27;99471.31;;;7.65;82.27
11830;BME280;5972;42.134;24.718;2023-11-19T00:37:54;99488.94;;;7.63;82.39
11830;BME280;5972;42.134;24.718;2023-11-19T00:40:21;99466.00;;;7.57;81.59
11830;BME280;5972;42.134;24.718;2023-11-19T00:42:48;99487.78;;;7.72;80.92
11830;BME280;5972;42.134;24.718;2023-11-19T00:45:18;99496.03;;;7.67;82.03
11830;BME280;5972;42.134;24.718;2023-11-19T00:47:45;99480.78;;;7.71;80.80
11830;BME280;5972;42.134;24.718;2023-11-19T00:50:12;99506.16;;;7.70;80.73
11830;BME280;5972;42.134;24.718;2023-11-19T00:52:40;99485.41;;;7.71;80.26
11830;BME280;5972;42.134;24.718;2023-11-19T00:55:07;99481.47;;;7.68;80.92
11830;BME280;5972;42.134;24.718;2023-11-19T00:57:34;99463.31;;;7.57;81.15
11830;BME280;5972;42.134;24.718;2023-11-19T01:00:02;99497.16;;;7.66;81.17
11830;BME280;5972;42.134;24.718;2023-11-19T01:02:34;99473.56;;;7.63;80.99
11830;BME280;5972;42.134;24.718;2023-11-19T01:05:01;99487.97;;;7.67;82.04
11830;BME280;5972;42.134;24.718;2023-11-19T01:07:28;99494.13;;;7.68;82.19
11830;BME280;5972;42.134;24.718;2023-11-19T01:09:56;99502.66;;;7.70;81.71
11830;BME280;5972;42.134;24.718;2023-11-19T01:12:22;99499.72;;;7.63;81.74
11830;BME280;5972;42.134;24.718;2023-11-19T01:14:49;99510.78;;;7.61;82.07
11830;BME280;5972;42.134;24.718;2023-11-19T01:17:16;99479.03;;;7.46;83.46
11830;BME280;5972;42.134;24.718;2023-11-19T01:19:43;99495.94;;;7.55;83.57
11830;BME280;5972;42.134;24.718;2023-11-19T01:22:10;99499.41;;;7.56;84.38
11830;BME280;5972;42.134;24.718;2023-11-19T01:24:36;99487.72;;;7.51;84.38
11830;BME280;5972;42.134;24.718;2023-11-19T01:27:05;99504.31;;;7.53;85.05
11830;BME280;5972;42.134;24.718;2023-11-19T01:29:32;99509.25;;;7.51;85.66
11830;BME280;5972;42.134;24.718;2023-11-19T01:31:59;99503.72;;;7.48;86.10
11830;BME280;5972;42.134;24.718;2023-11-19T01:34:25;99517.66;;;7.50;85.44
11830;BME280;5972;42.134;24.718;2023-11-19T01:36:52;99515.88;;;7.54;85.32
11830;BME280;5972;42.134;24.718;2023-11-19T01:39:19;99504.00;;;7.55;85.42
11830;BME280;5972;42.134;24.718;2023-11-19T01:41:46;99510.19;;;7.56;84.64
11830;BME280;5972;42.134;24.718;2023-11-19T01:44:14;99512.56;;;7.57;84.74
11830;BME280;5972;42.134;24.718;2023-11-19T01:46:44;99498.81;;;7.41;84.78
11830;BME280;5972;42.134;24.718;2023-11-19T01:49:14;99505.59;;;7.56;84.80
11830;BME280;5972;42.134;24.718;2023-11-19T01:51:42;99512.75;;;7.52;85.16
11830;BME280;5972;42.134;24.718;2023-11-19T01:54:09;99486.94;;;7.42;86.28
11830;BME280;5972;42.134;24.718;2023-11-19T01:56:37;99502.28;;;7.50;86.24
11830;BME280;5972;42.134;24.718;2023-11-19T01:59:07;99504.19;;;7.50;86.42
11830;BME280;5972;42.134;24.718;2023-11-19T02:01:36;99506.41;;;7.48;85.85
11830;BME280;5972;42.134;24.718;2023-11-19T02:04:05;99518.13;;;7.52;85.73
11830;BME280;5972;42.134;24.718;2023-11-19T02:06:33;99500.38;;;7.51;85.66
11830;BME280;5972;42.134;24.718;2023-11-19T02:09:01;99513.50;;;7.52;84.90
11830;BME280;5972;42.134;24.718;2023-11-19T02:11:33;99525.06;;;7.53;84.88
11830;BME280;5972;42.134;24.718;2023-11-19T02:14:00;99507.50;;;7.56;85.43
11830;BME280;5972;42.134;24.718;2023-11-19T02:16:29;99525.88;;;7.53;86.12
11830;BME280;5972;42.134;24.718;2023-11-19T02:18:57;99511.47;;;7.49;86.08
11830;BME280;5972;42.134;24.718;2023-11-19T02:21:24;99503.69;;;7.57;85.34
11830;BME280;5972;42.134;24.718;2023-11-19T02:23:51;99514.66;;;7.51;86.27
11830;BME280;5972;42.134;24.718;2023-11-19T02:26:27;99517.16;;;7.48;86.02
11830;BME280;5972;42.134;24.718;2023-11-19T02:28:56;99522.91;;;7.46;87.01
11830;BME280;5972;42.134;24.718;2023-11-19T02:31:23;99519.25;;;7.42;87.47
11830;BME280;5972;42.134;24.718;2023-11-19T02:33:52;99532.56;;;7.39;88.17
11830;BME280;5972;42.134;24.718;2023-11-19T02:36:20;99524.03;;;7.37;89.04
11830;BME280;5972;42.134;24.718;2023-11-19T02:38:47;99538.75;;;7.39;89.47
11830;BME280;5972;42.134;24.718;2023-11-19T02:41:14;99542.25;;;7.31;90.80
11830;BME280;5972;42.134;24.718;2023-11-19T02:43:41;99527.56;;;7.29;92.66
11830;BME280;5972;42.134;24.718;2023-11-19T02:46:09;99542.91;;;7.28;93.26
11830;BME280;5972;42.134;24.718;2023-11-19T02:48:36;99540.53;;;7.27;93.64
11830;BME280;5972;42.134;24.718;2023-11-19T02:51:07;99547.66;;;7.23;94.54
11830;BME280;5972;42.134;24.718;2023-11-19T02:53:35;99543.25;;;7.18;94.72
11830;BME280;5972;42.134;24.718;2023-11-19T02:56:05;99543.25;;;7.18;94.61
11830;BME280;5972;42.134;24.718;2023-11-19T02:58:43;99551.78;;;7.20;93.80
11830;BME280;5972;42.134;24.718;2023-11-19T03:01:13;99548.28;;;7.20;94.33
11830;BME280;5972;42.134;24.718;2023-11-19T03:03:48;99542.28;;;7.14;94.24
11830;BME280;5972;42.134;24.718;2023-11-19T03:06:20;99541.66;;;7.17;94.37
11830;BME280;5972;42.134;24.718;2023-11-19T03:08:47;99536.47;;;7.12;94.27
11830;BME280;5972;42.134;24.718;2023-11-19T03:11:14;99531.69;;;7.09;94.69
11830;BME280;5972;42.134;24.718;2023-11-19T03:13:41;99519.34;;;7.08;94.51
11830;BME280;5972;42.134;24.718;2023-11-19T03:16:08;99521.72;;;7.09;93.33
11830;BME280;5972;42.134;24.718;2023-11-19T03:18:38;99512.09;;;7.00;92.44
11830;BME280;5972;42.134;24.718;2023-11-19T03:21:05;99519.34;;;7.08;92.92
11830;BME280;5972;42.134;24.718;2023-11-19T03:23:33;99525.53;;;7.08;93.12
11830;BME280;5972;42.134;24.718;2023-11-19T03:26:00;99524.41;;;7.09;93.10
11830;BME280;5972;42.134;24.718;2023-11-19T03:28:31;99532.97;;;7.12;90.85
11830;BME280;5972;42.134;24.718;2023-11-19T03:30:57;99531.69;;;7.09;91.19
11830;BME280;5972;42.134;24.718;2023-11-19T03:33:24;99532.19;;;7.11;91.23
11830;BME280;5972;42.134;24.718;2023-11-19T03:35:54;99532.66;;;7.13;91.24
11830;BME280;5972;42.134;24.718;2023-11-19T03:38:22;99533.59;;;7.08;91.31
11830;BME280;5972;42.134;24.718;2023-11-19T03:40:49;99534.88;;;7.11;90.63
11830;BME280;5972;42.134;24.718;2023-11-19T03:43:16;99533.75;;;7.12;89.11
11830;BME280;5972;42.134;24.718;2023-11-19T03:45:44;99538.97;;;7.08;88.79
11830;BME280;5972;42.134;24.718;2023-11-19T03:48:11;99504.38;;;6.90;88.49
11830;BME280;5972;42.134;24.718;2023-11-19T03:53:25;99529.34;;;7.07;87.55
11830;BME280;5972;42.134;24.718;2023-11-19T03:55:52;99536.13;;;7.14;87.06
11830;BME280;5972;42.134;24.718;2023-11-19T03:58:19;99544.53;;;7.12;86.62
11830;BME280;5972;42.134;24.718;2023-11-19T04:00:45;99535.34;;;7.13;86.19
11830;BME280;5972;42.134;24.718;2023-11-19T04:03:13;99532.97;;;7.12;85.76
11830;BME280;5972;42.134;24.718;2023-11-19T04:05:39;99534.88;;;7.11;85.18
11830;BME280;5972;42.134;24.718;2023-11-19T04:08:06;99537.69;;;7.15;84.44
11830;BME280;5972;42.134;24.718;2023-11-19T04:10:35;99540.09;;;7.16;83.69
11830;BME280;5972;42.134;24.718;2023-11-19T04:13:01;99544.81;;;7.19;83.33
11830;BME280;5972;42.134;24.718;2023-11-19T04:15:28;99542.00;;;7.07;83.34
11830;BME280;5972;42.134;24.718;2023-11-19T04:17:55;99553.06;;;7.14;83.57
11830;BME280;5972;42.134;24.718;2023-11-19T04:20:22;99560.03;;;7.15;82.97
11830;BME280;5972;42.134;24.718;2023-11-19T04:22:50;99556.53;;;7.15;83.63
11830;BME280;5972;42.134;24.718;2023-11-19T04:25:17;99556.25;;;7.07;85.31
11830;BME280;5972;42.134;24.718;2023-11-19T04:27:46;99560.38;;;6.96;87.09
11830;BME280;5972;42.134;24.718;2023-11-19T04:30:13;99561.50;;;6.95;88.98
11830;BME280;5972;42.134;24.718;2023-11-19T04:32:41;99564.34;;;6.90;90.90
11830;BME280;5972;42.134;24.718;2023-11-19T04:35:08;99559.75;;;6.74;92.08
11830;BME280;5972;42.134;24.718;2023-11-19T04:37:36;99571.94;;;6.71;92.65
11830;BME280;5972;42.134;24.718;2023-11-19T04:40:03;99577.00;;;6.73;91.84
11830;BME280;5972;42.134;24.718;2023-11-19T04:42:30;99555.16;;;6.65;90.88
11830;BME280;5972;42.134;24.718;2023-11-19T04:44:59;99568.59;;;6.83;89.05
11830;BME280;5972;42.134;24.718;2023-11-19T04:47:26;99570.34;;;6.79;88.42
11830;BME280;5972;42.134;24.718;2023-11-19T04:49:53;99565.59;;;6.76;87.72
11830;BME280;5972;42.134;24.718;2023-11-19T04:52:19;99567.84;;;6.74;87.77
11830;BME280;5972;42.134;24.718;2023-11-19T04:54:46;99555.31;;;6.69;87.23
11830;BME280;5972;42.134;24.718;2023-11-19T04:57:13;99567.03;;;6.73;87.16
11830;BME280;5972;42.134;24.718;2023-11-19T04:59:40;99561.47;;;6.69;87.53
11830;BME280;5972;42.134;24.718;2023-11-19T05:02:09;99569.56;;;6.69;87.49
11830;BME280;5972;42.134;24.718;2023-11-19T05:04:36;99565.44;;;6.63;88.79
11830;BME280;5972;42.134;24.718;2023-11-19T05:07:03;99570.66;;;6.60;88.83
11830;BME280;5972;42.134;24.718;2023-11-19T05:09:31;99551.38;;;6.41;88.70
11830;BME280;5972;42.134;24.718;2023-11-19T05:11:57;99579.69;;;6.55;89.76
11830;BME280;5972;42.134;24.718;2023-11-19T05:14:24;99560.53;;;6.48;90.26
11830;BME280;5972;42.134;24.718;2023-11-19T05:16:51;99576.34;;;6.50;91.19
11830;BME280;5972;42.134;24.718;2023-11-19T05:19:19;99580.28;;;6.44;91.54
11830;BME280;5972;42.134;24.718;2023-11-19T05:21:45;99570.34;;;6.44;91.13
11830;BME280;5972;42.134;24.718;2023-11-19T05:24:12;99569.41;;;6.40;90.90
11830;BME280;5972;42.134;24.718;2023-11-19T05:26:39;99588.22;;;6.49;91.15
11830;BME280;5972;42.134;24.718;2023-11-19T05:29:07;99584.56;;;6.45;91.30
11830;BME280;5972;42.134;24.718;2023-11-19T05:31:33;99592.16;;;6.43;90.93
11830;BME280;5972;42.134;24.718;2023-11-19T05:34:00;99585.81;;;6.39;91.52
11830;BME280;5972;42.134;24.718;2023-11-19T05:36:28;99587.88;;;6.42;91.56
11830;BME280;5972;42.134;24.718;2023-11-19T05:38:55;99601.31;;;6.42;90.67
11830;BME280;5972;42.134;24.718;2023-11-19T05:41:22;99600.69;;;6.45;90.56
11830;BME280;5972;42.134;24.718;2023-11-19T05:43:49;99594.22;;;6.46;90.44
11830;BME280;5972;42.134;24.718;2023-11-19T05:46:17;99599.25;;;6.47;89.62
11830;BME280;5972;42.134;24.718;2023-11-19T05:48:44;99604.97;;;6.46;88.72
11830;BME280;5972;42.134;24.718;2023-11-19T05:51:12;99600.69;;;6.53;88.37
11830;BME280;5972;42.134;24.718;2023-11-19T05:53:40;99607.34;;;6.56;87.54
11830;BME280;5972;42.134;24.718;2023-11-19T05:56:08;99595.81;;;6.55;86.88
11830;BME280;5972;42.134;24.718;2023-11-19T05:58:35;99599.13;;;6.61;86.77
11830;BME280;5972;42.134;24.718;2023-11-19T06:01:03;99577.47;;;6.49;85.29
11830;BME280;5972;42.134;24.718;2023-11-19T06:03:30;99589.50;;;6.68;84.97
11830;BME280;5972;42.134;24.718;2023-11-19T06:05:57;99608.16;;;6.74;84.54
11830;BME280;5972;42.134;24.718;2023-11-19T06:08:24;99614.00;;;6.76;84.20
11830;BME280;5972;42.134;24.718;2023-11-19T06:10:53;99621.47;;;6.79;84.90
11830;BME280;5972;42.134;24.718;2023-11-19T06:13:21;99614.31;;;6.83;85.17
11830;BME280;5972;42.134;24.718;2023-11-19T06:15:49;99613.22;;;6.84;85.00
11830;BME280;5972;42.134;24.718;2023-11-19T06:18:16;99624.44;;;6.86;85.00
11830;BME280;5972;42.134;24.718;2023-11-19T06:20:45;99618.75;;;6.87;85.30
11830;BME280;5972;42.134;24.718;2023-11-19T06:23:12;99638.53;;;6.91;85.33
11830;BME280;5972;42.134;24.718;2023-11-19T06:25:39;99643.28;;;6.94;85.51
11830;BME280;5972;42.134;24.718;2023-11-19T06:28:07;99650.25;;;7.04;84.89
11830;BME280;5972;42.134;24.718;2023-11-19T06:30:35;99643.28;;;7.03;84.41
11830;BME280;5972;42.134;24.718;2023-11-19T06:33:02;99629.81;;;7.03;83.10
11830;BME280;5972;42.134;24.718;2023-11-19T06:35:29;99649.63;;;7.07;83.25
11830;BME280;5972;42.134;24.718;2023-11-19T06:38:01;99638.34;;;7.14;82.43
11830;BME280;5972;42.134;24.718;2023-11-19T06:40:28;99649.75;;;7.19;81.81
11830;BME280;5972;42.134;24.718;2023-11-19T06:42:56;99662.72;;;7.26;80.62
11830;BME280;5972;42.134;24.718;2023-11-19T06:45:24;99658.31;;;7.30;80.09
11830;BME280;5972;42.134;24.718;2023-11-19T06:47:51;99672.56;;;7.39;79.02
11830;BME280;5972;42.134;24.718;2023-11-19T06:50:18;99670.00;;;7.42;78.79
11830;BME280;5972;42.134;24.718;2023-11-19T06:52:45;99678.06;;;7.42;77.35
11830;BME280;5972;42.134;24.718;2023-11-19T06:55:11;99670.94;;;7.55;77.46
11830;BME280;5972;42.134;24.718;2023-11-19T06:57:38;99672.97;;;7.58;76.32
11830;BME280;5972;42.134;24.718;2023-11-19T07:00:06;99666.50;;;7.68;75.00
11830;BME280;5972;42.134;24.718;2023-11-19T07:02:35;99675.81;;;7.70;74.13
11830;BME280;5972;42.134;24.718;2023-11-19T07:05:02;99670.56;;;7.91;72.23
11830;BME280;5972;42.134;24.718;2023-11-19T07:07:30;99656.97;;;8.08;69.12
11830;BME280;5972;42.134;24.718;2023-11-19T07:09:58;99665.78;;;8.34;67.34
11830;BME280;5972;42.134;24.718;2023-11-19T07:12:25;99665.41;;;8.74;65.31
11830;BME280;5972;42.134;24.718;2023-11-19T07:14:52;99669.59;;;10.03;59.87
11830;BME280;5972;42.134;24.718;2023-11-19T07:17:20;99654.91;;;11.01;54.33
11830;BME280;5972;42.134;24.718;2023-11-19T07:19:51;99659.56;;;11.56;51.76
11830;BME280;5972;42.134;24.718;2023-11-19T07:22:17;99664.78;;;12.40;49.64
11830;BME280;5972;42.134;24.718;2023-11-19T07:24:45;99650.53;;;12.27;49.32
11830;BME280;5972;42.134;24.718;2023-11-19T07:27:12;99641.38;;;12.67;48.06
11830;BME280;5972;42.134;24.718;2023-11-19T07:29:39;99646.97;;;12.93;47.52
11830;BME280;5972;42.134;24.718;2023-11-19T07:32:06;99660.09;;;12.72;46.68
11830;BME280;5972;42.134;24.718;2023-11-19T07:34:34;99679.09;;;12.72;45.85
11830;BME280;5972;42.134;24.718;2023-11-19T07:37:02;99668.16;;;13.03;45.54
11830;BME280;5972;42.134;24.718;2023-11-19T07:39:30;99686.50;;;13.64;43.92
11830;BME280;5972;42.134;24.718;2023-11-19T07:41:56;99708.84;;;13.77;43.46
11830;BME280;5972;42.134;24.718;2023-11-19T07:44:23;99733.69;;;14.17;42.63
11830;BME280;5972;42.134;24.718;2023-11-19T07:46:51;99716.97;;;14.38;42.43
11830;BME280;5972;42.134;24.718;2023-11-19T07:49:18;99705.91;;;13.85;42.92
11830;BME280;5972;42.134;24.718;2023-11-19T07:51:45;99709.81;;;14.30;42.26
11830;BME280;5972;42.134;24.718;2023-11-19T07:54:13;99707.88;;;14.53;41.26
11830;BME280;5972;42.134;24.718;2023-11-19T07:56:40;99713.13;;;13.97;41.47
11830;BME280;5972;42.134;24.718;2023-11-19T07:59:07;99712.94;;;13.67;41.67
11830;BME280;5972;42.134;24.718;2023-11-19T08:01:34;99696.44;;;13.56;42.36
11830;BME280;5972;42.134;24.718;2023-11-19T08:04:01;99715.00;;;13.93;41.98
11830;BME280;5972;42.134;24.718;2023-11-19T08:06:28;99688.88;;;13.88;41.94
11830;BME280;5972;42.134;24.718;2023-11-19T08:08:55;99689.91;;;13.61;42.00
11830;BME280;5972;42.134;24.718;2023-11-19T08:11:23;99694.69;;;13.67;41.87
11830;BME280;5972;42.134;24.718;2023-11-19T08:13:51;99694.00;;;13.70;42.22
11830;BME280;5972;42.134;24.718;2023-11-19T08:16:18;99713.97;;;14.01;41.96
11830;BME280;5972;42.134;24.718;2023-11-19T08:18:45;99718.25;;;14.02;42.21
11830;BME280;5972;42.134;24.718;2023-11-19T08:21:12;99726.00;;;14.00;42.03
11830;BME280;5972;42.134;24.718;2023-11-19T08:23:38;99725.69;;;13.44;42.29
11830;BME280;5972;42.134;24.718;2023-11-19T08:26:06;99692.47;;;13.73;41.86
11830;BME280;5972;42.134;24.718;2023-11-19T08:28:34;99722.75;;;13.52;42.18
11830;BME280;5972;42.134;24.718;2023-11-19T08:31:01;99730.50;;;12.80;43.67
11830;BME280;5972;42.134;24.718;2023-11-19T08:33:29;99724.38;;;12.68;44.04
11830;BME280;5972;42.134;24.718;2023-11-19T08:35:56;99731.31;;;12.18;45.25
11830;BME280;5972;42.134;24.718;2023-11-19T08:38:24;99732.53;;;11.49;46.84
11830;BME280;5972;42.134;24.718;2023-11-19T08:40:51;99738.34;;;11.63;46.87
11830;BME280;5972;42.134;24.718;2023-11-19T08:43:18;99744.34;;;12.28;45.32
11830;BME280;5972;42.134;24.718;2023-11-19T08:45:46;99725.28;;;12.56;44.46
11830;BME280;5972;42.134;24.718;2023-11-19T08:48:13;99745.06;;;12.57;44.11
11830;BME280;5972;42.134;24.718;2023-11-19T08:50:40;99743.09;;;12.10;44.90
11830;BME280;5972;42.134;24.718;2023-11-19T08:53:07;99758.97;;;12.08;44.74
11830;BME280;5972;42.134;24.718;2023-11-19T08:55:34;99748.03;;;12.52;44.43
11830;BME280;5972;42.134;24.718;2023-11-19T08:58:02;99740.25;;;13.01;43.62
11830;BME280;5972;42.134;24.718;2023-11-19T09:00:29;99744.56;;;13.56;42.16
11830;BME280;5972;42.134;24.718;2023-11-19T09:02:59;99743.38;;;13.53;41.88
11830;BME280;5972;42.134;24.718;2023-11-19T09:05:26;99747.09;;;14.06;40.89
11830;BME280;5972;42.134;24.718;2023-11-19T09:07:53;99745.22;;;13.49;40.82
11830;BME280;5972;42.134;24.718;2023-11-19T09:10:20;99753.22;;;13.61;41.04
11830;BME280;5972;42.134;24.718;2023-11-19T09:12:47;99727.91;;;13.57;40.59
11830;BME280;5972;42.134;24.718;2023-11-19T09:15:14;99736.56;;;13.63;40.66
11830;BME280;5972;42.134;24.718;2023-11-19T09:17:41;99721.81;;;13.83;40.51
11830;BME280;5972;42.134;24.718;2023-11-19T09:20:10;99728.13;;;14.55;39.43
11830;BME280;5972;42.134;24.718;2023-11-19T09:22:40;99713.63;;;15.01;38.79
11830;BME280;5972;42.134;24.718;2023-11-19T09:25:08;99702.34;;;15.58;38.01
11830;BME280;5972;42.134;24.718;2023-11-19T09:27:34;99704.41;;;15.38;36.75
11830;BME280;5972;42.134;24.718;2023-11-19T09:30:01;99739.97;;;15.49;36.80
11830;BME280;5972;42.134;24.718;2023-11-19T09:32:29;99744.94;;;15.40;36.82
11830;BME280;5972;42.134;24.718;2023-11-19T09:34:56;99744.50;;;16.01;36.20
11830;BME280;5972;42.134;24.718;2023-11-19T09:37:24;99741.09;;;16.11;35.79
11830;BME280;5972;42.134;24.718;2023-11-19T09:39:51;99739.84;;;16.02;35.85
11830;BME280;5972;42.134;24.718;2023-11-19T09:42:19;99737.56;;;16.51;35.23
11830;BME280;5972;42.134;24.718;2023-11-19T09:44:47;99731.91;;;16.27;35.53
11830;BME280;5972;42.134;24.718;2023-11-19T09:47:14;99723.78;;;16.37;35.21
11830;BME280;5972;42.134;24.718;2023-11-19T09:49:43;99727.25;;;16.34;35.20
11830;BME280;5972;42.134;24.718;2023-11-19T09:52:11;99727.22;;;16.71;34.97
11830;BME280;5972;42.134;24.718;2023-11-19T09:54:39;99735.00;;;16.69;35.09
11830;BME280;5972;42.134;24.718;2023-11-19T09:57:06;99749.66;;;16.98;34.78
11830;BME280;5972;42.134;24.718;2023-11-19T09:59:35;99740.88;;;16.71;34.91
11830;BME280;5972;42.134;24.718;2023-11-19T10:02:03;99750.63;;;16.72;34.74
11830;BME280;5972;42.134;24.718;2023-11-19T10:04:31;99735.44;;;16.75;34.25
11830;BME280;5972;42.134;24.718;2023-11-19T10:07:00;99749.09;;;16.31;35.16
11830;BME280;5972;42.134;24.718;2023-11-19T10:09:27;99748.47;;;16.48;34.85
11830;BME280;5972;42.134;24.718;2023-11-19T10:11:55;99743.91;;;16.59;34.77
11830;BME280;5972;42.134;24.718;2023-11-19T10:14:23;99733.19;;;16.91;34.78
11830;BME280;5972;42.134;24.718;2023-11-19T10:16:50;99734.59;;;17.29;34.08
11830;BME280;5972;42.134;24.718;2023-11-19T10:19:20;99711.72;;;16.38;34.65
11830;BME280;5972;42.134;24.718;2023-11-19T10:21:47;99718.47;;;16.11;34.79
11830;BME280;5972;42.134;24.718;2023-11-19T10:24:15;99724.34;;;16.13;35.14
11830;BME280;5972;42.134;24.718;2023-11-19T10:26:42;99732.44;;;16.43;34.57
11830;BME280;5972;42.134;24.718;2023-11-19T10:29:12;99723.47;;;16.46;34.56
11830;BME280;5972;42.134;24.718;2023-11-19T10:31:39;99728.16;;;16.93;34.14
11830;BME280;5972;42.134;24.718;2023-11-19T10:34:24;99719.88;;;16.86;34.22
11830;BME280;5972;42.134;24.718;2023-11-19T10:36:51;99704.97;;;16.25;34.70
11830;BME280;5972;42.134;24.718;2023-11-19T10:39:18;99699.56;;;15.92;34.88
11830;BME280;5972;42.134;24.718;2023-11-19T10:41:46;99703.06;;;15.55;35.55
11830;BME280;5972;42.134;24.718;2023-11-19T10:44:31;99705.09;;;15.02;36.27
11830;BME280;5972;42.134;24.718;2023-11-19T10:46:59;99696.03;;;15.21;36.56
11830;BME280;5972;42.134;24.718;2023-11-19T10:49:26;99692.78;;;15.45;36.56
11830;BME280;5972;42.134;24.718;2023-11-19T10:51:53;99687.16;;;15.61;35.96
11830;BME280;5972;42.134;24.718;2023-11-19T10:54:23;99695.81;;;15.36;36.28
11830;BME280;5972;42.134;24.718;2023-11-19T10:56:54;99718.56;;;15.48;36.04
11830;BME280;5972;42.134;24.718;2023-11-19T10:59:21;99695.88;;;15.44;36.29
11830;BME280;5972;42.134;24.718;2023-11-19T11:01:52;99691.19;;;15.11;36.49
11830;BME280;5972;42.134;24.718;2023-11-19T11:04:23;99675.31;;;14.86;36.49
11830;BME280;5972;42.134;24.718;2023-11-19T11:06:50;99689.78;;;14.94;36.65
11830;BME280;5972;42.134;24.718;2023-11-19T11:09:18;99669.25;;;14.70;36.94
11830;BME280;5972;42.134;24.718;2023-11-19T11:11:46;99691.47;;;14.49;37.54
11830;BME280;5972;42.134;24.718;2023-11-19T11:14:14;99700.97;;;14.13;38.10
11830;BME280;5972;42.134;24.718;2023-11-19T11:16:43;99690.41;;;13.66;39.09
11830;BME280;5972;42.134;24.718;2023-11-19T11:19:12;99654.81;;;13.14;39.59
11830;BME280;5972;42.134;24.718;2023-11-19T11:21:42;99691.81;;;13.03;40.46
11830;BME280;5972;42.134;24.718;2023-11-19T11:24:30;99692.09;;;12.63;41.03
11830;BME280;5972;42.134;24.718;2023-11-19T11:27:34;99674.34;;;12.34;41.40
11830;BME280;5972;42.134;24.718;2023-11-19T11:30:11;99684.66;;;12.13;42.09
11830;BME280;5972;42.134;24.718;2023-11-19T11:32:45;99671.72;;;12.06;42.30
11830;BME280;5972;42.134;24.718;2023-11-19T11:35:27;99673.47;;;12.14;42.90
11830;BME280;5972;42.134;24.718;2023-11-19T11:38:01;99659.63;;;11.88;42.37
11830;BME280;5972;42.134;24.718;2023-11-19T11:40:29;99653.25;;;11.96;42.82
11830;BME280;5972;42.134;24.718;2023-11-19T11:42:57;99644.06;;;11.85;42.52
11830;BME280;5972;42.134;24.718;2023-11-19T11:45:42;99641.53;;;11.92;42.73
11830;BME280;5972;42.134;24.718;2023-11-19T11:48:19;99636.47;;;11.90;42.64
11830;BME280;5972;42.134;24.718;2023-11-19T11:50:57;99634.63;;;11.94;42.65
11830;BME280;5972;42.134;24.718;2023-11-19T11:53:25;99632.69;;;11.79;42.63
11830;BME280;5972;42.134;24.718;2023-11-19T11:55:57;99622.81;;;11.87;43.01
11830;BME280;5972;42.134;24.718;2023-11-19T11:58:31;99613.75;;;11.67;43.37
11830;BME280;5972;42.134;24.718;2023-11-19T12:01:01;99619.66;;;11.85;43.51
11830;BME280;5972;42.134;24.718;2023-11-19T12:03:29;99611.34;;;11.78;43.37
11830;BME280;5972;42.134;24.718;2023-11-19T12:05:58;99601.56;;;11.89;43.31
11830;BME280;5972;42.134;24.718;2023-11-19T12:08:27;99604.53;;;11.84;43.34
11830;BME280;5972;42.134;24.718;2023-11-19T12:10:55;99608.91;;;11.88;43.57
11830;BME280;5972;42.134;24.718;2023-11-19T12:13:29;99609.69;;;11.89;43.65
11830;BME280;5972;42.134;24.718;2023-11-19T12:16:10;99622.03;;;11.86;44.07
11830;BME280;5972;42.134;24.718;2023-11-19T12:18:39;99616.78;;;11.93;44.16
11830;BME280;5972;42.134;24.718;2023-11-19T12:21:08;99627.72;;;12.13;44.17
11830;BME280;5972;42.134;24.718;2023-11-19T12:23:45;99598.22;;;12.11;43.93
11830;BME280;5972;42.134;24.718;2023-11-19T12:26:32;99608.63;;;11.78;44.15
11830;BME280;5972;42.134;24.718;2023-11-19T12:29:00;99599.03;;;11.80;44.32
11830;BME280;5972;42.134;24.718;2023-11-19T12:31:29;99582.28;;;11.62;44.53
11830;BME280;5972;42.134;24.718;2023-11-19T12:33:57;99576.88;;;11.62;44.87
11830;BME280;5972;42.134;24.718;2023-11-19T12:36:25;99591.59;;;11.77;44.89
11830;BME280;5972;42.134;24.718;2023-11-19T12:38:52;99580.13;;;11.84;44.98
11830;BME280;5972;42.134;24.718;2023-11-19T12:41:20;99583.72;;;11.88;44.92
11830;BME280;5972;42.134;24.718;2023-11-19T12:43:49;99579.44;;;11.87;44.81
11830;BME280;5972;42.134;24.718;2023-11-19T12:46:18;99562.72;;;11.69;44.92
11830;BME280;5972;42.134;24.718;2023-11-19T12:48:46;99575.22;;;11.58;45.49
11830;BME280;5972;42.134;24.718;2023-11-19T12:51:14;99568.72;;;11.62;45.85
11830;BME280;5972;42.134;24.718;2023-11-19T12:53:49;99545.47;;;11.61;45.88
11830;BME280;5972;42.134;24.718;2023-11-19T12:56:19;99564.63;;;11.53;45.77
11830;BME280;5972;42.134;24.718;2023-11-19T12:58:46;99564.06;;;11.32;46.44
11830;BME280;5972;42.134;24.718;2023-11-19T13:01:16;99568.88;;;11.38;46.69
11830;BME280;5972;42.134;24.718;2023-11-19T13:03:43;99575.78;;;11.36;46.25
11830;BME280;5972;42.134;24.718;2023-11-19T13:06:29;99563.25;;;11.15;46.95
11830;BME280;5972;42.134;24.718;2023-11-19T13:08:56;99572.94;;;11.16;46.95
11830;BME280;5972;42.134;24.718;2023-11-19T13:11:34;99561.84;;;11.21;46.89
11830;BME280;5972;42.134;24.718;2023-11-19T13:14:02;99558.84;;;11.39;47.02